sensor_id;sensor_type;location;lat;lon;timestamp;P1;durP1;ratioP1;P2;durP2;ratioP2
11066;SDS011;29763;50.904;5.530;2023-03-16T00:01:18;5.63;;;5.00;;
11066;SDS011;29763;50.904;5.530;2023-03-16T00:03:45;6.13;;;4.83;;
11066;SDS011;29763;50.904;5.530;2023-03-16T00:06:11;5.17;;;4.67;;
11066;SDS011;29763;50.904;5.530;2023-03-16T00:08:36;5.40;;;4.73;;
11066;SDS011;29763;50.904;5.530;2023-03-16T00:11:03;5.90;;;4.80;;
11066;SDS011;29763;50.904;5.530;2023-03-16T00:13:29;5.53;;;4.80;;
11066;SDS011;29763;50.904;5.530;2023-03-16T00:15:55;5.10;;;4.60;;
11066;SDS011;29763;50.904;5.530;2023-03-16T00:18:23;6.27;;;4.77;;
11066;SDS011;29763;50.904;5.530;2023-03-16T00:20:55;5.40;;;4.90;;
11066;SDS011;29763;50.904;5.530;2023-03-16T00:23:23;6.63;;;5.07;;
11066;SDS011;29763;50.904;5.530;2023-03-16T00:25:56;5.43;;;4.93;;
11066;SDS011;29763;50.904;5.530;2023-03-16T00:28:23;6.40;;;4.80;;
11066;SDS011;29763;50.904;5.530;2023-03-16T00:30:50;7.50;;;4.80;;
11066;SDS011;29763;50.904;5.530;2023-03-16T00:33:16;6.23;;;4.43;;
11066;SDS011;29763;50.904;5.530;2023-03-16T00:35:45;4.87;;;4.30;;
11066;SDS011;29763;50.904;5.530;2023-03-16T00:38:18;5.27;;;4.77;;
11066;SDS011;29763;50.904;5.530;2023-03-16T00:40:45;6.40;;;5.20;;
11066;SDS011;29763;50.904;5.530;2023-03-16T00:43:11;5.17;;;4.57;;
11066;SDS011;29763;50.904;5.530;2023-03-16T00:45:42;7.30;;;4.50;;
11066;SDS011;29763;50.904;5.530;2023-03-16T00:48:09;5.20;;;4.70;;
11066;SDS011;29763;50.904;5.530;2023-03-16T00:50:35;5.20;;;4.47;;
11066;SDS011;29763;50.904;5.530;2023-03-16T00:53:01;5.43;;;4.50;;
11066;SDS011;29763;50.904;5.530;2023-03-16T00:55:27;6.00;;;4.30;;
11066;SDS011;29763;50.904;5.530;2023-03-16T00:57:53;5.30;;;4.40;;
11066;SDS011;29763;50.904;5.530;2023-03-16T01:00:19;5.33;;;4.03;;
11066;SDS011;29763;50.904;5.530;2023-03-16T01:02:51;5.13;;;4.40;;
11066;SDS011;29763;50.904;5.530;2023-03-16T01:05:17;6.63;;;4.40;;
11066;SDS011;29763;50.904;5.530;2023-03-16T01:07:44;5.37;;;4.40;;
11066;SDS011;29763;50.904;5.530;2023-03-16T01:10:10;5.77;;;4.27;;
11066;SDS011;29763;50.904;5.530;2023-03-16T01:12:36;4.57;;;3.67;;
11066;SDS011;29763;50.904;5.530;2023-03-16T01:15:02;5.00;;;4.17;;
11066;SDS011;29763;50.904;5.530;2023-03-16T01:17:31;5.33;;;4.10;;
11066;SDS011;29763;50.904;5.530;2023-03-16T01:19:59;5.27;;;4.23;;
11066;SDS011;29763;50.904;5.530;2023-03-16T01:22:25;5.47;;;4.00;;
11066;SDS011;29763;50.904;5.530;2023-03-16T01:24:51;4.60;;;3.80;;
11066;SDS011;29763;50.904;5.530;2023-03-16T01:27:17;5.20;;;3.83;;
11066;SDS011;29763;50.904;5.530;2023-03-16T01:29:42;4.37;;;3.97;;
11066;SDS011;29763;50.904;5.530;2023-03-16T01:32:08;5.33;;;3.80;;
11066;SDS011;29763;50.904;5.530;2023-03-16T01:34:34;5.23;;;3.67;;
11066;SDS011;29763;50.904;5.530;2023-03-16T01:37:00;4.77;;;3.70;;
11066;SDS011;29763;50.904;5.530;2023-03-16T01:39:26;4.87;;;3.80;;
11066;SDS011;29763;50.904;5.530;2023-03-16T01:41:51;6.50;;;3.63;;
11066;SDS011;29763;50.904;5.530;2023-03-16T01:44:18;5.70;;;3.40;;
11066;SDS011;29763;50.904;5.530;2023-03-16T01:46:52;4.17;;;3.50;;
11066;SDS011;29763;50.904;5.530;2023-03-16T01:49:33;6.67;;;3.57;;
11066;SDS011;29763;50.904;5.530;2023-03-16T01:52:03;6.37;;;3.47;;
11066;SDS011;29763;50.904;5.530;2023-03-16T01:59:30;3.97;;;3.30;;
11066;SDS011;29763;50.904;5.530;2023-03-16T02:02:09;4.17;;;3.03;;
11066;SDS011;29763;50.904;5.530;2023-03-16T02:04:41;5.17;;;3.20;;
11066;SDS011;29763;50.904;5.530;2023-03-16T02:07:14;3.40;;;3.10;;
11066;SDS011;29763;50.904;5.530;2023-03-16T02:09:44;5.70;;;3.20;;
11066;SDS011;29763;50.904;5.530;2023-03-16T02:12:13;3.40;;;3.10;;
11066;SDS011;29763;50.904;5.530;2023-03-16T02:14:46;4.33;;;2.90;;
11066;SDS011;29763;50.904;5.530;2023-03-16T02:17:14;4.20;;;3.03;;
11066;SDS011;29763;50.904;5.530;2023-03-16T02:22:24;3.93;;;3.27;;
11066;SDS011;29763;50.904;5.530;2023-03-16T02:24:53;5.27;;;2.90;;
11066;SDS011;29763;50.904;5.530;2023-03-16T02:27:56;4.83;;;2.90;;
11066;SDS011;29763;50.904;5.530;2023-03-16T02:30:20;3.43;;;2.83;;
11066;SDS011;29763;50.904;5.530;2023-03-16T02:32:48;3.47;;;3.17;;
11066;SDS011;29763;50.904;5.530;2023-03-16T02:35:17;4.80;;;3.03;;
11066;SDS011;29763;50.904;5.530;2023-03-16T02:37:43;4.20;;;3.30;;
11066;SDS011;29763;50.904;5.530;2023-03-16T02:45:31;5.03;;;3.40;;
11066;SDS011;29763;50.904;5.530;2023-03-16T02:48:04;4.60;;;3.10;;
11066;SDS011;29763;50.904;5.530;2023-03-16T02:50:41;4.17;;;3.23;;
11066;SDS011;29763;50.904;5.530;2023-03-16T02:53:11;4.77;;;3.27;;
11066;SDS011;29763;50.904;5.530;2023-03-16T02:55:37;5.63;;;3.20;;
11066;SDS011;29763;50.904;5.530;2023-03-16T02:58:03;4.20;;;3.47;;
11066;SDS011;29763;50.904;5.530;2023-03-16T03:00:28;3.67;;;3.17;;
11066;SDS011;29763;50.904;5.530;2023-03-16T03:02:54;3.70;;;3.17;;
11066;SDS011;29763;50.904;5.530;2023-03-16T03:05:20;3.60;;;2.93;;
11066;SDS011;29763;50.904;5.530;2023-03-16T03:07:46;4.43;;;3.20;;
11066;SDS011;29763;50.904;5.530;2023-03-16T03:10:12;5.43;;;3.37;;
11066;SDS011;29763;50.904;5.530;2023-03-16T03:12:37;4.60;;;3.17;;
11066;SDS011;29763;50.904;5.530;2023-03-16T03:15:03;6.13;;;3.40;;
11066;SDS011;29763;50.904;5.530;2023-03-16T03:17:30;4.70;;;3.37;;
11066;SDS011;29763;50.904;5.530;2023-03-16T03:19:56;4.60;;;3.17;;
11066;SDS011;29763;50.904;5.530;2023-03-16T03:22:24;4.23;;;3.07;;
11066;SDS011;29763;50.904;5.530;2023-03-16T03:24:51;7.37;;;3.30;;
11066;SDS011;29763;50.904;5.530;2023-03-16T03:27:18;5.00;;;3.17;;
11066;SDS011;29763;50.904;5.530;2023-03-16T03:29:44;3.67;;;3.03;;
11066;SDS011;29763;50.904;5.530;2023-03-16T03:32:10;4.63;;;3.27;;
11066;SDS011;29763;50.904;5.530;2023-03-16T03:34:36;5.17;;;3.23;;
11066;SDS011;29763;50.904;5.530;2023-03-16T03:37:02;4.87;;;3.30;;
11066;SDS011;29763;50.904;5.530;2023-03-16T03:39:28;4.07;;;3.00;;
11066;SDS011;29763;50.904;5.530;2023-03-16T03:41:53;4.77;;;3.03;;
11066;SDS011;29763;50.904;5.530;2023-03-16T03:44:20;3.70;;;3.17;;
11066;SDS011;29763;50.904;5.530;2023-03-16T03:46:46;4.70;;;3.23;;
11066;SDS011;29763;50.904;5.530;2023-03-16T03:49:12;4.53;;;3.50;;
11066;SDS011;29763;50.904;5.530;2023-03-16T03:51:39;3.90;;;3.30;;
11066;SDS011;29763;50.904;5.530;2023-03-16T03:54:08;4.57;;;3.10;;
11066;SDS011;29763;50.904;5.530;2023-03-16T03:56:34;7.23;;;3.60;;
11066;SDS011;29763;50.904;5.530;2023-03-16T03:59:00;3.80;;;3.40;;
11066;SDS011;29763;50.904;5.530;2023-03-16T04:01:26;3.97;;;3.30;;
11066;SDS011;29763;50.904;5.530;2023-03-16T04:03:52;3.43;;;3.10;;
11066;SDS011;29763;50.904;5.530;2023-03-16T04:06:18;3.70;;;3.23;;
11066;SDS011;29763;50.904;5.530;2023-03-16T04:08:43;6.90;;;3.83;;
11066;SDS011;29763;50.904;5.530;2023-03-16T04:11:09;3.97;;;3.50;;
11066;SDS011;29763;50.904;5.530;2023-03-16T04:13:36;4.30;;;3.47;;
11066;SDS011;29763;50.904;5.530;2023-03-16T04:16:01;4.50;;;3.57;;
11066;SDS011;29763;50.904;5.530;2023-03-16T04:18:28;5.50;;;3.40;;
11066;SDS011;29763;50.904;5.530;2023-03-16T04:21:02;4.70;;;3.30;;
11066;SDS011;29763;50.904;5.530;2023-03-16T04:23:31;3.77;;;3.17;;
11066;SDS011;29763;50.904;5.530;2023-03-16T04:25:57;4.47;;;3.40;;
11066;SDS011;29763;50.904;5.530;2023-03-16T04:28:24;5.17;;;3.63;;
11066;SDS011;29763;50.904;5.530;2023-03-16T04:30:51;4.60;;;3.63;;
11066;SDS011;29763;50.904;5.530;2023-03-16T04:33:19;5.10;;;3.40;;
11066;SDS011;29763;50.904;5.530;2023-03-16T04:35:46;6.73;;;3.50;;
11066;SDS011;29763;50.904;5.530;2023-03-16T04:38:12;4.10;;;3.20;;
11066;SDS011;29763;50.904;5.530;2023-03-16T04:40:38;5.90;;;3.80;;
11066;SDS011;29763;50.904;5.530;2023-03-16T04:43:03;5.70;;;4.00;;
11066;SDS011;29763;50.904;5.530;2023-03-16T04:45:29;6.20;;;3.63;;
11066;SDS011;29763;50.904;5.530;2023-03-16T04:47:56;6.23;;;3.83;;
11066;SDS011;29763;50.904;5.530;2023-03-16T04:50:22;4.40;;;3.90;;
11066;SDS011;29763;50.904;5.530;2023-03-16T04:52:49;5.07;;;3.90;;
11066;SDS011;29763;50.904;5.530;2023-03-16T04:55:15;5.30;;;3.80;;
11066;SDS011;29763;50.904;5.530;2023-03-16T04:57:41;6.10;;;3.57;;
11066;SDS011;29763;50.904;5.530;2023-03-16T05:00:07;4.03;;;3.43;;
11066;SDS011;29763;50.904;5.530;2023-03-16T05:02:36;4.78;;;3.25;;
11066;SDS011;29763;50.904;5.530;2023-03-16T05:05:02;4.70;;;3.40;;
11066;SDS011;29763;50.904;5.530;2023-03-16T05:07:31;6.53;;;3.80;;
11066;SDS011;29763;50.904;5.530;2023-03-16T05:09:57;5.70;;;3.60;;
11066;SDS011;29763;50.904;5.530;2023-03-16T05:12:23;6.53;;;3.70;;
11066;SDS011;29763;50.904;5.530;2023-03-16T05:14:48;6.47;;;3.60;;
11066;SDS011;29763;50.904;5.530;2023-03-16T05:17:14;4.23;;;3.73;;
11066;SDS011;29763;50.904;5.530;2023-03-16T05:19:40;5.20;;;3.50;;
11066;SDS011;29763;50.904;5.530;2023-03-16T05:22:06;4.17;;;3.70;;
11066;SDS011;29763;50.904;5.530;2023-03-16T05:24:32;5.53;;;3.93;;
11066;SDS011;29763;50.904;5.530;2023-03-16T05:26:58;5.27;;;3.60;;
11066;SDS011;29763;50.904;5.530;2023-03-16T05:29:27;5.80;;;3.83;;
11066;SDS011;29763;50.904;5.530;2023-03-16T05:31:55;7.23;;;3.50;;
11066;SDS011;29763;50.904;5.530;2023-03-16T05:34:21;5.73;;;3.40;;
11066;SDS011;29763;50.904;5.530;2023-03-16T05:36:47;6.50;;;4.07;;
11066;SDS011;29763;50.904;5.530;2023-03-16T05:39:13;5.43;;;3.60;;
11066;SDS011;29763;50.904;5.530;2023-03-16T05:41:39;4.77;;;3.63;;
11066;SDS011;29763;50.904;5.530;2023-03-16T05:44:07;5.13;;;3.83;;
11066;SDS011;29763;50.904;5.530;2023-03-16T05:46:33;4.47;;;3.77;;
11066;SDS011;29763;50.904;5.530;2023-03-16T05:48:59;6.27;;;3.60;;
11066;SDS011;29763;50.904;5.530;2023-03-16T05:51:25;6.47;;;4.20;;
11066;SDS011;29763;50.904;5.530;2023-03-16T05:53:51;4.00;;;3.60;;
11066;SDS011;29763;50.904;5.530;2023-03-16T05:56:21;6.10;;;3.70;;
11066;SDS011;29763;50.904;5.530;2023-03-16T05:58:49;6.40;;;3.43;;
11066;SDS011;29763;50.904;5.530;2023-03-16T06:01:19;4.43;;;3.23;;
11066;SDS011;29763;50.904;5.530;2023-03-16T06:03:46;4.33;;;3.87;;
11066;SDS011;29763;50.904;5.530;2023-03-16T06:06:13;5.33;;;3.70;;
11066;SDS011;29763;50.904;5.530;2023-03-16T06:08:40;4.53;;;3.63;;
11066;SDS011;29763;50.904;5.530;2023-03-16T06:11:10;4.17;;;3.47;;
11066;SDS011;29763;50.904;5.530;2023-03-16T06:13:36;6.00;;;3.90;;
11066;SDS011;29763;50.904;5.530;2023-03-16T06:16:03;5.60;;;3.50;;
11066;SDS011;29763;50.904;5.530;2023-03-16T06:18:30;6.30;;;3.13;;
11066;SDS011;29763;50.904;5.530;2023-03-16T06:20:56;5.17;;;3.40;;
11066;SDS011;29763;50.904;5.530;2023-03-16T06:23:22;4.63;;;3.40;;
11066;SDS011;29763;50.904;5.530;2023-03-16T06:25:49;4.97;;;3.50;;
11066;SDS011;29763;50.904;5.530;2023-03-16T06:28:15;4.93;;;3.70;;
11066;SDS011;29763;50.904;5.530;2023-03-16T06:30:41;7.37;;;3.30;;
11066;SDS011;29763;50.904;5.530;2023-03-16T06:33:07;6.00;;;3.20;;
11066;SDS011;29763;50.904;5.530;2023-03-16T06:35:35;3.70;;;3.27;;
11066;SDS011;29763;50.904;5.530;2023-03-16T06:38:01;7.53;;;3.70;;
11066;SDS011;29763;50.904;5.530;2023-03-16T06:40:27;5.47;;;3.30;;
11066;SDS011;29763;50.904;5.530;2023-03-16T06:42:53;3.20;;;2.90;;
11066;SDS011;29763;50.904;5.530;2023-03-16T06:45:19;6.37;;;3.20;;
11066;SDS011;29763;50.904;5.530;2023-03-16T06:47:46;4.53;;;3.27;;
11066;SDS011;29763;50.904;5.530;2023-03-16T06:50:12;5.37;;;3.20;;
11066;SDS011;29763;50.904;5.530;2023-03-16T06:52:39;5.13;;;3.30;;
11066;SDS011;29763;50.904;5.530;2023-03-16T06:55:08;6.30;;;3.57;;
11066;SDS011;29763;50.904;5.530;2023-03-16T06:57:34;4.97;;;3.13;;
11066;SDS011;29763;50.904;5.530;2023-03-16T07:00:00;6.03;;;3.20;;
11066;SDS011;29763;50.904;5.530;2023-03-16T07:02:28;5.67;;;3.33;;
11066;SDS011;29763;50.904;5.530;2023-03-16T07:04:54;6.17;;;3.37;;
11066;SDS011;29763;50.904;5.530;2023-03-16T07:07:19;3.97;;;3.50;;
11066;SDS011;29763;50.904;5.530;2023-03-16T07:09:46;5.20;;;3.50;;
11066;SDS011;29763;50.904;5.530;2023-03-16T07:12:11;4.23;;;3.40;;
11066;SDS011;29763;50.904;5.530;2023-03-16T07:14:37;6.30;;;3.20;;
11066;SDS011;29763;50.904;5.530;2023-03-16T07:17:03;4.60;;;3.40;;
11066;SDS011;29763;50.904;5.530;2023-03-16T07:19:30;5.07;;;3.50;;
11066;SDS011;29763;50.904;5.530;2023-03-16T07:21:56;5.20;;;3.80;;
11066;SDS011;29763;50.904;5.530;2023-03-16T07:24:22;5.57;;;3.53;;
11066;SDS011;29763;50.904;5.530;2023-03-16T07:26:48;5.13;;;3.87;;
11066;SDS011;29763;50.904;5.530;2023-03-16T07:29:13;6.67;;;3.63;;
11066;SDS011;29763;50.904;5.530;2023-03-16T07:31:41;5.23;;;3.80;;
11066;SDS011;29763;50.904;5.530;2023-03-16T07:34:07;6.03;;;3.73;;
11066;SDS011;29763;50.904;5.530;2023-03-16T07:36:33;6.27;;;3.83;;
11066;SDS011;29763;50.904;5.530;2023-03-16T07:38:58;5.10;;;3.60;;
11066;SDS011;29763;50.904;5.530;2023-03-16T07:41:25;4.90;;;3.80;;
11066;SDS011;29763;50.904;5.530;2023-03-16T07:43:51;4.97;;;3.67;;
11066;SDS011;29763;50.904;5.530;2023-03-16T07:46:17;4.63;;;3.70;;
11066;SDS011;29763;50.904;5.530;2023-03-16T07:48:43;4.23;;;3.70;;
11066;SDS011;29763;50.904;5.530;2023-03-16T07:51:10;5.97;;;4.13;;
11066;SDS011;29763;50.904;5.530;2023-03-16T07:53:41;4.50;;;3.70;;
11066;SDS011;29763;50.904;5.530;2023-03-16T07:56:07;4.77;;;3.60;;
11066;SDS011;29763;50.904;5.530;2023-03-16T07:58:33;9.83;;;3.73;;
11066;SDS011;29763;50.904;5.530;2023-03-16T08:01:02;5.17;;;3.57;;
11066;SDS011;29763;50.904;5.530;2023-03-16T08:03:28;5.97;;;3.70;;
11066;SDS011;29763;50.904;5.530;2023-03-16T08:05:55;5.47;;;3.33;;
11066;SDS011;29763;50.904;5.530;2023-03-16T08:08:21;4.33;;;3.40;;
11066;SDS011;29763;50.904;5.530;2023-03-16T08:10:47;7.37;;;3.70;;
11066;SDS011;29763;50.904;5.530;2023-03-16T08:13:16;5.70;;;3.30;;
11066;SDS011;29763;50.904;5.530;2023-03-16T08:15:50;5.60;;;3.57;;
11066;SDS011;29763;50.904;5.530;2023-03-16T08:18:26;4.50;;;3.20;;
11066;SDS011;29763;50.904;5.530;2023-03-16T08:20:55;7.00;;;3.63;;
11066;SDS011;29763;50.904;5.530;2023-03-16T08:23:23;4.27;;;3.27;;
11066;SDS011;29763;50.904;5.530;2023-03-16T08:25:53;3.40;;;2.97;;
11066;SDS011;29763;50.904;5.530;2023-03-16T08:28:20;4.67;;;3.10;;
11066;SDS011;29763;50.904;5.530;2023-03-16T08:30:46;4.50;;;3.20;;
11066;SDS011;29763;50.904;5.530;2023-03-16T08:33:15;4.23;;;3.20;;
11066;SDS011;29763;50.904;5.530;2023-03-16T08:35:42;5.07;;;3.00;;
11066;SDS011;29763;50.904;5.530;2023-03-16T08:38:09;4.43;;;2.90;;
11066;SDS011;29763;50.904;5.530;2023-03-16T08:40:35;4.97;;;3.20;;
11066;SDS011;29763;50.904;5.530;2023-03-16T08:43:21;3.50;;;2.70;;
11066;SDS011;29763;50.904;5.530;2023-03-16T08:45:48;3.33;;;2.87;;
11066;SDS011;29763;50.904;5.530;2023-03-16T08:48:14;5.87;;;3.00;;
11066;SDS011;29763;50.904;5.530;2023-03-16T08:50:44;4.78;;;2.97;;
11066;SDS011;29763;50.904;5.530;2023-03-16T08:53:11;3.60;;;2.70;;
11066;SDS011;29763;50.904;5.530;2023-03-16T08:55:37;3.45;;;2.75;;
11066;SDS011;29763;50.904;5.530;2023-03-16T08:58:05;3.00;;;2.70;;
11066;SDS011;29763;50.904;5.530;2023-03-16T09:00:32;3.85;;;2.65;;
11066;SDS011;29763;50.904;5.530;2023-03-16T09:02:58;4.03;;;2.67;;
11066;SDS011;29763;50.904;5.530;2023-03-16T09:05:24;6.47;;;3.00;;
11066;SDS011;29763;50.904;5.530;2023-03-16T09:07:51;5.82;;;3.38;;
11066;SDS011;29763;50.904;5.530;2023-03-16T09:10:18;5.28;;;2.83;;
11066;SDS011;29763;50.904;5.530;2023-03-16T09:12:47;6.75;;;2.47;;
11066;SDS011;29763;50.904;5.530;2023-03-16T09:15:17;4.63;;;2.63;;
11066;SDS011;29763;50.904;5.530;2023-03-16T09:17:45;5.43;;;2.80;;
11066;SDS011;29763;50.904;5.530;2023-03-16T09:20:13;6.53;;;2.70;;
11066;SDS011;29763;50.904;5.530;2023-03-16T09:22:41;6.00;;;3.17;;
11066;SDS011;29763;50.904;5.530;2023-03-16T09:25:07;4.05;;;2.83;;
11066;SDS011;29763;50.904;5.530;2023-03-16T09:27:35;5.43;;;2.75;;
11066;SDS011;29763;50.904;5.530;2023-03-16T09:30:02;3.47;;;2.50;;
11066;SDS011;29763;50.904;5.530;2023-03-16T09:32:29;6.55;;;2.72;;
11066;SDS011;29763;50.904;5.530;2023-03-16T09:34:55;4.85;;;2.80;;
11066;SDS011;29763;50.904;5.530;2023-03-16T09:37:21;4.85;;;2.78;;
11066;SDS011;29763;50.904;5.530;2023-03-16T09:39:47;4.13;;;2.40;;
11066;SDS011;29763;50.904;5.530;2023-03-16T09:42:18;4.65;;;2.53;;
11066;SDS011;29763;50.904;5.530;2023-03-16T09:47:41;5.25;;;2.60;;
11066;SDS011;29763;50.904;5.530;2023-03-16T09:50:15;5.05;;;2.55;;
11066;SDS011;29763;50.904;5.530;2023-03-16T09:55:26;3.55;;;2.53;;
11066;SDS011;29763;50.904;5.530;2023-03-16T09:57:57;3.75;;;2.78;;
11066;SDS011;29763;50.904;5.530;2023-03-16T10:00:26;4.75;;;2.50;;
11066;SDS011;29763;50.904;5.530;2023-03-16T10:05:35;4.55;;;2.40;;
11066;SDS011;29763;50.904;5.530;2023-03-16T10:13:55;3.45;;;2.30;;
11066;SDS011;29763;50.904;5.530;2023-03-16T10:16:46;3.53;;;2.45;;
11066;SDS011;29763;50.904;5.530;2023-03-16T10:19:30;4.78;;;2.10;;
11066;SDS011;29763;50.904;5.530;2023-03-16T10:21:57;2.72;;;2.15;;
11066;SDS011;29763;50.904;5.530;2023-03-16T10:27:30;3.13;;;1.98;;
11066;SDS011;29763;50.904;5.530;2023-03-16T10:29:58;2.70;;;1.90;;
11066;SDS011;29763;50.904;5.530;2023-03-16T10:32:28;7.32;;;2.80;;
11066;SDS011;29763;50.904;5.530;2023-03-16T10:35:46;3.17;;;2.13;;
11066;SDS011;29763;50.904;5.530;2023-03-16T10:38:03;3.05;;;2.03;;
11066;SDS011;29763;50.904;5.530;2023-03-16T10:40:35;3.28;;;1.90;;
11066;SDS011;29763;50.904;5.530;2023-03-16T10:43:12;3.70;;;2.20;;
11066;SDS011;29763;50.904;5.530;2023-03-16T10:45:41;4.22;;;2.40;;
11066;SDS011;29763;50.904;5.530;2023-03-16T10:48:10;4.30;;;2.30;;
11066;SDS011;29763;50.904;5.530;2023-03-16T10:50:53;3.67;;;2.13;;
11066;SDS011;29763;50.904;5.530;2023-03-16T10:53:28;4.28;;;2.38;;
11066;SDS011;29763;50.904;5.530;2023-03-16T10:55:56;3.13;;;2.00;;
11066;SDS011;29763;50.904;5.530;2023-03-16T10:58:30;4.10;;;2.10;;
11066;SDS011;29763;50.904;5.530;2023-03-16T11:00:58;3.08;;;1.80;;
11066;SDS011;29763;50.904;5.530;2023-03-16T11:03:26;3.05;;;2.10;;
11066;SDS011;29763;50.904;5.530;2023-03-16T11:05:57;3.30;;;2.13;;
11066;SDS011;29763;50.904;5.530;2023-03-16T11:08:25;2.97;;;2.03;;
11066;SDS011;29763;50.904;5.530;2023-03-16T11:10:56;5.57;;;1.80;;
11066;SDS011;29763;50.904;5.530;2023-03-16T11:13:35;3.50;;;2.40;;
11066;SDS011;29763;50.904;5.530;2023-03-16T11:19:01;2.83;;;1.77;;
11066;SDS011;29763;50.904;5.530;2023-03-16T11:21:41;2.65;;;1.90;;
11066;SDS011;29763;50.904;5.530;2023-03-16T11:25:17;3.13;;;1.90;;
11066;SDS011;29763;50.904;5.530;2023-03-16T11:32:38;2.83;;;1.70;;
11066;SDS011;29763;50.904;5.530;2023-03-16T11:35:12;4.25;;;2.20;;
11066;SDS011;29763;50.904;5.530;2023-03-16T11:40:18;2.60;;;1.77;;
11066;SDS011;29763;50.904;5.530;2023-03-16T11:43:13;3.25;;;2.10;;
11066;SDS011;29763;50.904;5.530;2023-03-16T11:45:56;4.25;;;1.90;;
11066;SDS011;29763;50.904;5.530;2023-03-16T11:51:04;3.85;;;2.17;;
11066;SDS011;29763;50.904;5.530;2023-03-16T11:57:02;2.35;;;1.83;;
11066;SDS011;29763;50.904;5.530;2023-03-16T12:16:20;2.97;;;1.92;;
11066;SDS011;29763;50.904;5.530;2023-03-16T12:18:57;3.53;;;2.45;;
11066;SDS011;29763;50.904;5.530;2023-03-16T12:21:31;3.25;;;2.05;;
11066;SDS011;29763;50.904;5.530;2023-03-16T12:24:02;3.70;;;2.20;;
11066;SDS011;29763;50.904;5.530;2023-03-16T12:26:37;2.28;;;1.83;;
11066;SDS011;29763;50.904;5.530;2023-03-16T12:32:17;3.58;;;2.25;;
11066;SDS011;29763;50.904;5.530;2023-03-16T12:34:58;2.55;;;2.00;;
11066;SDS011;29763;50.904;5.530;2023-03-16T12:43:17;4.07;;;2.20;;
11066;SDS011;29763;50.904;5.530;2023-03-16T12:45:57;3.47;;;1.88;;
11066;SDS011;29763;50.904;5.530;2023-03-16T12:48:30;2.47;;;2.03;;
11066;SDS011;29763;50.904;5.530;2023-03-16T12:51:08;2.85;;;1.75;;
11066;SDS011;29763;50.904;5.530;2023-03-16T12:56:27;3.17;;;1.60;;
11066;SDS011;29763;50.904;5.530;2023-03-16T12:58:57;2.95;;;1.50;;
11066;SDS011;29763;50.904;5.530;2023-03-16T13:01:29;2.95;;;2.00;;
11066;SDS011;29763;50.904;5.530;2023-03-16T13:04:05;2.97;;;1.73;;
11066;SDS011;29763;50.904;5.530;2023-03-16T13:07:06;3.22;;;1.88;;
11066;SDS011;29763;50.904;5.530;2023-03-16T13:09:51;3.75;;;2.00;;
11066;SDS011;29763;50.904;5.530;2023-03-16T13:12:30;3.70;;;1.80;;
11066;SDS011;29763;50.904;5.530;2023-03-16T13:15:00;2.72;;;2.00;;
11066;SDS011;29763;50.904;5.530;2023-03-16T13:17:41;2.97;;;2.10;;
11066;SDS011;29763;50.904;5.530;2023-03-16T13:28:32;2.75;;;1.80;;
11066;SDS011;29763;50.904;5.530;2023-03-16T13:31:00;3.58;;;1.90;;
11066;SDS011;29763;50.904;5.530;2023-03-16T13:33:27;2.55;;;2.10;;
11066;SDS011;29763;50.904;5.530;2023-03-16T13:35:56;4.13;;;2.55;;
11066;SDS011;29763;50.904;5.530;2023-03-16T13:38:24;5.20;;;2.40;;
11066;SDS011;29763;50.904;5.530;2023-03-16T13:41:01;5.75;;;2.13;;
11066;SDS011;29763;50.904;5.530;2023-03-16T13:43:36;3.97;;;2.80;;
11066;SDS011;29763;50.904;5.530;2023-03-16T13:46:17;2.97;;;1.50;;
11066;SDS011;29763;50.904;5.530;2023-03-16T13:48:48;2.67;;;1.70;;
11066;SDS011;29763;50.904;5.530;2023-03-16T13:51:18;3.60;;;2.08;;
11066;SDS011;29763;50.904;5.530;2023-03-16T13:53:46;1.90;;;1.80;;
11066;SDS011;29763;50.904;5.530;2023-03-16T13:56:15;1.77;;;1.55;;
11066;SDS011;29763;50.904;5.530;2023-03-16T13:58:43;4.30;;;1.80;;
11066;SDS011;29763;50.904;5.530;2023-03-16T14:01:25;5.18;;;2.10;;
11066;SDS011;29763;50.904;5.530;2023-03-16T14:03:59;2.83;;;1.83;;
11066;SDS011;29763;50.904;5.530;2023-03-16T14:06:34;3.38;;;1.70;;
11066;SDS011;29763;50.904;5.530;2023-03-16T14:09:02;3.13;;;1.83;;
11066;SDS011;29763;50.904;5.530;2023-03-16T14:11:33;4.15;;;1.95;;
11066;SDS011;29763;50.904;5.530;2023-03-16T14:13:59;3.42;;;1.55;;
11066;SDS011;29763;50.904;5.530;2023-03-16T14:16:26;3.20;;;1.63;;
11066;SDS011;29763;50.904;5.530;2023-03-16T14:21:36;3.47;;;1.58;;
11066;SDS011;29763;50.904;5.530;2023-03-16T14:24:15;4.00;;;1.88;;
11066;SDS011;29763;50.904;5.530;2023-03-16T14:26:49;2.95;;;1.90;;
11066;SDS011;29763;50.904;5.530;2023-03-16T14:31:52;4.38;;;1.88;;
11066;SDS011;29763;50.904;5.530;2023-03-16T14:37:08;2.83;;;1.67;;
11066;SDS011;29763;50.904;5.530;2023-03-16T14:39:37;4.45;;;1.90;;
11066;SDS011;29763;50.904;5.530;2023-03-16T14:42:04;1.50;;;1.35;;
11066;SDS011;29763;50.904;5.530;2023-03-16T14:44:39;1.88;;;1.40;;
11066;SDS011;29763;50.904;5.530;2023-03-16T14:47:06;5.75;;;2.40;;
11066;SDS011;29763;50.904;5.530;2023-03-16T14:49:40;4.30;;;2.90;;
11066;SDS011;29763;50.904;5.530;2023-03-16T14:52:07;4.93;;;3.55;;
11066;SDS011;29763;50.904;5.530;2023-03-16T14:54:41;4.50;;;1.67;;
11066;SDS011;29763;50.904;5.530;2023-03-16T14:57:11;3.90;;;1.63;;
11066;SDS011;29763;50.904;5.530;2023-03-16T14:59:41;2.42;;;1.50;;
11066;SDS011;29763;50.904;5.530;2023-03-16T15:02:14;2.20;;;1.40;;
11066;SDS011;29763;50.904;5.530;2023-03-16T15:04:48;1.73;;;1.35;;
11066;SDS011;29763;50.904;5.530;2023-03-16T15:07:25;3.63;;;1.80;;
11066;SDS011;29763;50.904;5.530;2023-03-16T15:10:00;2.67;;;1.10;;
11066;SDS011;29763;50.904;5.530;2023-03-16T15:12:31;2.80;;;1.77;;
11066;SDS011;29763;50.904;5.530;2023-03-16T15:14:58;2.30;;;1.55;;
11066;SDS011;29763;50.904;5.530;2023-03-16T15:17:40;5.00;;;3.00;;
11066;SDS011;29763;50.904;5.530;2023-03-16T15:20:13;3.58;;;2.00;;
11066;SDS011;29763;50.904;5.530;2023-03-16T15:22:44;2.97;;;1.95;;
11066;SDS011;29763;50.904;5.530;2023-03-16T15:27:47;3.17;;;1.98;;
11066;SDS011;29763;50.904;5.530;2023-03-16T15:30:17;3.22;;;1.80;;
11066;SDS011;29763;50.904;5.530;2023-03-16T15:32:48;2.55;;;1.75;;
11066;SDS011;29763;50.904;5.530;2023-03-16T15:35:14;2.92;;;1.92;;
11066;SDS011;29763;50.904;5.530;2023-03-16T15:37:40;10.55;;;3.10;;
11066;SDS011;29763;50.904;5.530;2023-03-16T15:40:16;2.95;;;1.65;;
11066;SDS011;29763;50.904;5.530;2023-03-16T15:42:45;6.13;;;2.25;;
11066;SDS011;29763;50.904;5.530;2023-03-16T15:45:12;2.83;;;1.60;;
11066;SDS011;29763;50.904;5.530;2023-03-16T15:47:48;2.85;;;1.55;;
11066;SDS011;29763;50.904;5.530;2023-03-16T15:50:17;3.55;;;1.70;;
11066;SDS011;29763;50.904;5.530;2023-03-16T15:52:56;2.78;;;1.88;;
11066;SDS011;29763;50.904;5.530;2023-03-16T15:55:36;3.85;;;1.63;;
11066;SDS011;29763;50.904;5.530;2023-03-16T15:58:09;3.40;;;1.85;;
11066;SDS011;29763;50.904;5.530;2023-03-16T16:00:43;7.25;;;1.90;;
11066;SDS011;29763;50.904;5.530;2023-03-16T16:03:11;4.18;;;1.65;;
11066;SDS011;29763;50.904;5.530;2023-03-16T16:05:37;2.55;;;1.83;;
11066;SDS011;29763;50.904;5.530;2023-03-16T16:08:04;3.70;;;1.55;;
11066;SDS011;29763;50.904;5.530;2023-03-16T16:10:30;4.18;;;1.60;;
11066;SDS011;29763;50.904;5.530;2023-03-16T16:12:59;2.83;;;1.60;;
11066;SDS011;29763;50.904;5.530;2023-03-16T16:15:26;4.28;;;1.65;;
11066;SDS011;29763;50.904;5.530;2023-03-16T16:18:01;3.55;;;2.03;;
11066;SDS011;29763;50.904;5.530;2023-03-16T16:21:03;4.88;;;1.90;;
11066;SDS011;29763;50.904;5.530;2023-03-16T16:23:59;3.35;;;2.53;;
11066;SDS011;29763;50.904;5.530;2023-03-16T16:29:50;3.17;;;1.75;;
11066;SDS011;29763;50.904;5.530;2023-03-16T16:35:52;3.75;;;2.25;;
11066;SDS011;29763;50.904;5.530;2023-03-16T16:38:41;5.05;;;1.98;;
11066;SDS011;29763;50.904;5.530;2023-03-16T16:44:46;2.95;;;1.88;;
11066;SDS011;29763;50.904;5.530;2023-03-16T16:47:18;5.28;;;1.95;;